sensor_id;sensor_type;location;lat;lon;timestamp;P1;durP1;ratioP1;P2;durP2;ratioP2
32096;SDS011;18610;49.916;8.284;2024-03-02T00:01:34;18.15;;;10.77;;
32096;SDS011;18610;49.916;8.284;2024-03-02T00:04:02;19.98;;;11.07;;
32096;SDS011;18610;49.916;8.284;2024-03-02T00:06:31;20.45;;;11.73;;
32096;SDS011;18610;49.916;8.284;2024-03-02T00:08:57;18.58;;;11.40;;
32096;SDS011;18610;49.916;8.284;2024-03-02T00:11:24;22.00;;;12.27;;
32096;SDS011;18610;49.916;8.284;2024-03-02T00:13:52;29.27;;;11.82;;
32096;SDS011;18610;49.916;8.284;2024-03-02T00:16:19;21.15;;;10.82;;
32096;SDS011;18610;49.916;8.284;2024-03-02T00:18:47;20.52;;;12.20;;
32096;SDS011;18610;49.916;8.284;2024-03-02T00:21:13;22.48;;;13.38;;
32096;SDS011;18610;49.916;8.284;2024-03-02T00:23:44;22.85;;;12.35;;
32096;SDS011;18610;49.916;8.284;2024-03-02T00:26:11;20.23;;;12.65;;
32096;SDS011;18610;49.916;8.284;2024-03-02T00:28:38;22.88;;;12.68;;
32096;SDS011;18610;49.916;8.284;2024-03-02T00:31:09;23.58;;;13.25;;
32096;SDS011;18610;49.916;8.284;2024-03-02T00:33:38;22.00;;;12.98;;
32096;SDS011;18610;49.916;8.284;2024-03-02T00:36:07;22.70;;;12.85;;
32096;SDS011;18610;49.916;8.284;2024-03-02T00:38:39;25.55;;;13.45;;
32096;SDS011;18610;49.916;8.284;2024-03-02T00:41:15;32.92;;;14.02;;
32096;SDS011;18610;49.916;8.284;2024-03-02T00:43:56;24.17;;;11.45;;
32096;SDS011;18610;49.916;8.284;2024-03-02T00:46:24;23.10;;;12.35;;
32096;SDS011;18610;49.916;8.284;2024-03-02T00:48:51;19.48;;;11.95;;
32096;SDS011;18610;49.916;8.284;2024-03-02T00:51:20;19.95;;;12.35;;
32096;SDS011;18610;49.916;8.284;2024-03-02T00:53:49;25.77;;;13.52;;
32096;SDS011;18610;49.916;8.284;2024-03-02T00:56:16;23.73;;;13.48;;
32096;SDS011;18610;49.916;8.284;2024-03-02T00:58:43;31.45;;;15.75;;
32096;SDS011;18610;49.916;8.284;2024-03-02T01:01:09;21.75;;;12.55;;
32096;SDS011;18610;49.916;8.284;2024-03-02T01:03:36;24.80;;;12.65;;
32096;SDS011;18610;49.916;8.284;2024-03-02T01:06:03;19.08;;;12.70;;
32096;SDS011;18610;49.916;8.284;2024-03-02T01:08:32;21.45;;;13.60;;
32096;SDS011;18610;49.916;8.284;2024-03-02T01:11:00;22.77;;;13.30;;
32096;SDS011;18610;49.916;8.284;2024-03-02T01:13:27;22.60;;;12.75;;
32096;SDS011;18610;49.916;8.284;2024-03-02T01:15:54;25.60;;;12.93;;
32096;SDS011;18610;49.916;8.284;2024-03-02T01:18:20;26.02;;;14.65;;
32096;SDS011;18610;49.916;8.284;2024-03-02T01:20:48;24.70;;;14.27;;
32096;SDS011;18610;49.916;8.284;2024-03-02T01:23:16;23.23;;;14.38;;
32096;SDS011;18610;49.916;8.284;2024-03-02T01:25:44;20.27;;;13.13;;
32096;SDS011;18610;49.916;8.284;2024-03-02T01:28:12;26.02;;;12.95;;
32096;SDS011;18610;49.916;8.284;2024-03-02T01:30:39;22.50;;;13.52;;
32096;SDS011;18610;49.916;8.284;2024-03-02T01:33:06;22.95;;;14.20;;
32096;SDS011;18610;49.916;8.284;2024-03-02T01:35:32;27.55;;;16.02;;
32096;SDS011;18610;49.916;8.284;2024-03-02T01:38:02;32.53;;;13.27;;
32096;SDS011;18610;49.916;8.284;2024-03-02T01:40:31;21.42;;;12.43;;
32096;SDS011;18610;49.916;8.284;2024-03-02T01:42:57;23.25;;;13.38;;
32096;SDS011;18610;49.916;8.284;2024-03-02T01:45:25;26.45;;;13.25;;
32096;SDS011;18610;49.916;8.284;2024-03-02T01:47:52;26.45;;;11.98;;
32096;SDS011;18610;49.916;8.284;2024-03-02T01:50:24;21.23;;;11.48;;
32096;SDS011;18610;49.916;8.284;2024-03-02T01:52:51;24.38;;;12.63;;
32096;SDS011;18610;49.916;8.284;2024-03-02T01:55:21;25.40;;;13.80;;
32096;SDS011;18610;49.916;8.284;2024-03-02T01:57:48;22.75;;;13.63;;
32096;SDS011;18610;49.916;8.284;2024-03-02T02:00:15;22.85;;;14.05;;
32096;SDS011;18610;49.916;8.284;2024-03-02T02:02:44;21.02;;;13.10;;
32096;SDS011;18610;49.916;8.284;2024-03-02T02:05:11;20.33;;;11.65;;
32096;SDS011;18610;49.916;8.284;2024-03-02T02:07:39;21.00;;;13.15;;
32096;SDS011;18610;49.916;8.284;2024-03-02T02:10:07;17.20;;;10.52;;
32096;SDS011;18610;49.916;8.284;2024-03-02T02:12:34;19.00;;;11.98;;
32096;SDS011;18610;49.916;8.284;2024-03-02T02:15:01;21.83;;;10.93;;
32096;SDS011;18610;49.916;8.284;2024-03-02T02:17:29;20.90;;;11.00;;
32096;SDS011;18610;49.916;8.284;2024-03-02T02:19:57;17.80;;;11.13;;
32096;SDS011;18610;49.916;8.284;2024-03-02T02:22:25;23.77;;;12.68;;
32096;SDS011;18610;49.916;8.284;2024-03-02T02:24:53;21.38;;;11.50;;
32096;SDS011;18610;49.916;8.284;2024-03-02T02:27:20;21.92;;;11.35;;
32096;SDS011;18610;49.916;8.284;2024-03-02T02:29:46;20.60;;;11.65;;
32096;SDS011;18610;49.916;8.284;2024-03-02T02:32:13;23.23;;;10.30;;
32096;SDS011;18610;49.916;8.284;2024-03-02T02:34:40;20.65;;;11.07;;
32096;SDS011;18610;49.916;8.284;2024-03-02T02:37:06;17.80;;;10.07;;
32096;SDS011;18610;49.916;8.284;2024-03-02T02:39:34;18.23;;;11.00;;
32096;SDS011;18610;49.916;8.284;2024-03-02T02:42:01;17.02;;;10.23;;
32096;SDS011;18610;49.916;8.284;2024-03-02T02:44:28;19.17;;;10.73;;
32096;SDS011;18610;49.916;8.284;2024-03-02T02:46:54;19.65;;;10.93;;
32096;SDS011;18610;49.916;8.284;2024-03-02T02:49:21;18.42;;;9.85;;
32096;SDS011;18610;49.916;8.284;2024-03-02T02:51:47;22.33;;;10.25;;
32096;SDS011;18610;49.916;8.284;2024-03-02T02:54:14;16.40;;;10.68;;
32096;SDS011;18610;49.916;8.284;2024-03-02T02:56:42;17.90;;;11.02;;
32096;SDS011;18610;49.916;8.284;2024-03-02T02:59:09;21.30;;;11.15;;
32096;SDS011;18610;49.916;8.284;2024-03-02T03:01:36;17.42;;;10.25;;
32096;SDS011;18610;49.916;8.284;2024-03-02T03:04:02;21.23;;;10.60;;
32096;SDS011;18610;49.916;8.284;2024-03-02T03:06:30;17.23;;;10.48;;
32096;SDS011;18610;49.916;8.284;2024-03-02T03:08:56;20.33;;;10.82;;
32096;SDS011;18610;49.916;8.284;2024-03-02T03:11:23;17.23;;;10.43;;
32096;SDS011;18610;49.916;8.284;2024-03-02T03:13:52;18.90;;;11.05;;
32096;SDS011;18610;49.916;8.284;2024-03-02T03:16:20;20.08;;;11.30;;
32096;SDS011;18610;49.916;8.284;2024-03-02T03:18:47;18.58;;;11.02;;
32096;SDS011;18610;49.916;8.284;2024-03-02T03:21:16;26.90;;;12.18;;
32096;SDS011;18610;49.916;8.284;2024-03-02T03:23:43;16.63;;;10.45;;
32096;SDS011;18610;49.916;8.284;2024-03-02T03:26:09;18.58;;;11.57;;
32096;SDS011;18610;49.916;8.284;2024-03-02T03:28:36;18.42;;;10.07;;
32096;SDS011;18610;49.916;8.284;2024-03-02T03:31:04;22.27;;;11.57;;
32096;SDS011;18610;49.916;8.284;2024-03-02T03:33:31;24.23;;;11.68;;
32096;SDS011;18610;49.916;8.284;2024-03-02T03:35:57;19.02;;;11.55;;
32096;SDS011;18610;49.916;8.284;2024-03-02T03:38:24;22.25;;;11.68;;
32096;SDS011;18610;49.916;8.284;2024-03-02T03:40:51;22.58;;;11.63;;
32096;SDS011;18610;49.916;8.284;2024-03-02T03:43:17;24.30;;;13.07;;
32096;SDS011;18610;49.916;8.284;2024-03-02T03:45:44;19.85;;;11.60;;
32096;SDS011;18610;49.916;8.284;2024-03-02T03:48:12;16.98;;;10.77;;
32096;SDS011;18610;49.916;8.284;2024-03-02T03:50:39;23.02;;;12.52;;
32096;SDS011;18610;49.916;8.284;2024-03-02T03:53:05;20.08;;;11.50;;
32096;SDS011;18610;49.916;8.284;2024-03-02T03:55:33;19.23;;;12.00;;
32096;SDS011;18610;49.916;8.284;2024-03-02T03:57:59;19.98;;;12.55;;
32096;SDS011;18610;49.916;8.284;2024-03-02T04:00:26;23.35;;;11.95;;
32096;SDS011;18610;49.916;8.284;2024-03-02T04:02:53;24.75;;;12.77;;
32096;SDS011;18610;49.916;8.284;2024-03-02T04:05:20;24.40;;;11.55;;
32096;SDS011;18610;49.916;8.284;2024-03-02T04:07:47;18.02;;;10.85;;
32096;SDS011;18610;49.916;8.284;2024-03-02T04:10:14;22.65;;;12.70;;
32096;SDS011;18610;49.916;8.284;2024-03-02T04:12:42;19.25;;;12.48;;
32096;SDS011;18610;49.916;8.284;2024-03-02T04:15:09;20.65;;;12.43;;
32096;SDS011;18610;49.916;8.284;2024-03-02T04:17:35;22.88;;;13.38;;
32096;SDS011;18610;49.916;8.284;2024-03-02T04:20:02;22.52;;;12.07;;
32096;SDS011;18610;49.916;8.284;2024-03-02T04:22:33;22.60;;;12.43;;
32096;SDS011;18610;49.916;8.284;2024-03-02T04:25:00;21.88;;;12.43;;
32096;SDS011;18610;49.916;8.284;2024-03-02T04:27:29;19.30;;;11.77;;
32096;SDS011;18610;49.916;8.284;2024-03-02T04:29:56;24.42;;;13.95;;
32096;SDS011;18610;49.916;8.284;2024-03-02T04:32:23;24.75;;;13.30;;
32096;SDS011;18610;49.916;8.284;2024-03-02T04:34:49;22.75;;;13.63;;
32096;SDS011;18610;49.916;8.284;2024-03-02T04:37:16;25.05;;;14.35;;
32096;SDS011;18610;49.916;8.284;2024-03-02T04:39:44;26.30;;;14.07;;
32096;SDS011;18610;49.916;8.284;2024-03-02T04:42:11;29.05;;;14.35;;
32096;SDS011;18610;49.916;8.284;2024-03-02T04:44:37;27.80;;;13.63;;
32096;SDS011;18610;49.916;8.284;2024-03-02T04:47:04;25.70;;;14.10;;
32096;SDS011;18610;49.916;8.284;2024-03-02T04:49:31;24.38;;;13.82;;
32096;SDS011;18610;49.916;8.284;2024-03-02T04:51:58;29.00;;;16.23;;
32096;SDS011;18610;49.916;8.284;2024-03-02T04:54:24;27.42;;;14.13;;
32096;SDS011;18610;49.916;8.284;2024-03-02T04:56:52;22.42;;;13.90;;
32096;SDS011;18610;49.916;8.284;2024-03-02T04:59:19;26.50;;;13.57;;
32096;SDS011;18610;49.916;8.284;2024-03-02T05:01:46;23.08;;;14.65;;
32096;SDS011;18610;49.916;8.284;2024-03-02T05:04:13;26.38;;;14.00;;
32096;SDS011;18610;49.916;8.284;2024-03-02T05:06:39;26.60;;;14.60;;
32096;SDS011;18610;49.916;8.284;2024-03-02T05:09:08;22.83;;;13.82;;
32096;SDS011;18610;49.916;8.284;2024-03-02T05:11:35;31.30;;;14.77;;
32096;SDS011;18610;49.916;8.284;2024-03-02T05:14:41;27.60;;;15.20;;
32096;SDS011;18610;49.916;8.284;2024-03-02T05:17:08;30.45;;;15.27;;
32096;SDS011;18610;49.916;8.284;2024-03-02T05:19:35;29.10;;;15.07;;
32096;SDS011;18610;49.916;8.284;2024-03-02T05:22:01;29.80;;;15.57;;
32096;SDS011;18610;49.916;8.284;2024-03-02T05:24:29;27.42;;;15.45;;
32096;SDS011;18610;49.916;8.284;2024-03-02T05:26:55;24.50;;;14.45;;
32096;SDS011;18610;49.916;8.284;2024-03-02T05:29:22;27.67;;;14.60;;
32096;SDS011;18610;49.916;8.284;2024-03-02T05:31:50;31.02;;;15.27;;
32096;SDS011;18610;49.916;8.284;2024-03-02T05:34:17;30.38;;;15.15;;
32096;SDS011;18610;49.916;8.284;2024-03-02T05:36:43;22.40;;;14.55;;
32096;SDS011;18610;49.916;8.284;2024-03-02T05:39:10;31.70;;;15.85;;
32096;SDS011;18610;49.916;8.284;2024-03-02T05:41:36;24.73;;;14.90;;
32096;SDS011;18610;49.916;8.284;2024-03-02T05:44:03;24.40;;;14.82;;
32096;SDS011;18610;49.916;8.284;2024-03-02T05:46:30;24.80;;;15.05;;
32096;SDS011;18610;49.916;8.284;2024-03-02T05:48:58;29.05;;;16.48;;
32096;SDS011;18610;49.916;8.284;2024-03-02T05:51:25;23.70;;;14.75;;
32096;SDS011;18610;49.916;8.284;2024-03-02T05:53:51;24.92;;;15.05;;
32096;SDS011;18610;49.916;8.284;2024-03-02T05:56:18;26.55;;;14.27;;
32096;SDS011;18610;49.916;8.284;2024-03-02T05:58:45;24.15;;;15.35;;
32096;SDS011;18610;49.916;8.284;2024-03-02T06:01:22;29.30;;;14.35;;
32096;SDS011;18610;49.916;8.284;2024-03-02T06:03:53;29.70;;;16.00;;
32096;SDS011;18610;49.916;8.284;2024-03-02T06:06:21;26.88;;;16.02;;
32096;SDS011;18610;49.916;8.284;2024-03-02T06:08:48;27.48;;;14.38;;
32096;SDS011;18610;49.916;8.284;2024-03-02T06:11:15;26.48;;;14.82;;
32096;SDS011;18610;49.916;8.284;2024-03-02T06:13:41;26.17;;;16.17;;
32096;SDS011;18610;49.916;8.284;2024-03-02T06:16:08;26.25;;;15.75;;
32096;SDS011;18610;49.916;8.284;2024-03-02T06:18:35;25.67;;;16.08;;
32096;SDS011;18610;49.916;8.284;2024-03-02T06:21:01;26.02;;;15.02;;
32096;SDS011;18610;49.916;8.284;2024-03-02T06:23:30;38.47;;;15.55;;
32096;SDS011;18610;49.916;8.284;2024-03-02T06:25:57;27.10;;;14.52;;
32096;SDS011;18610;49.916;8.284;2024-03-02T06:28:23;25.83;;;15.70;;
32096;SDS011;18610;49.916;8.284;2024-03-02T06:30:50;26.17;;;14.80;;
32096;SDS011;18610;49.916;8.284;2024-03-02T06:33:17;30.25;;;15.90;;
32096;SDS011;18610;49.916;8.284;2024-03-02T06:35:43;31.17;;;15.13;;
32096;SDS011;18610;49.916;8.284;2024-03-02T06:38:10;23.17;;;14.85;;
32096;SDS011;18610;49.916;8.284;2024-03-02T06:40:38;23.95;;;14.27;;
32096;SDS011;18610;49.916;8.284;2024-03-02T06:43:07;22.42;;;12.98;;
32096;SDS011;18610;49.916;8.284;2024-03-02T06:45:34;24.00;;;13.98;;
32096;SDS011;18610;49.916;8.284;2024-03-02T06:48:00;25.85;;;13.77;;
32096;SDS011;18610;49.916;8.284;2024-03-02T06:50:27;24.65;;;12.43;;
32096;SDS011;18610;49.916;8.284;2024-03-02T06:52:54;25.92;;;13.73;;
32096;SDS011;18610;49.916;8.284;2024-03-02T06:55:21;24.85;;;14.50;;
32096;SDS011;18610;49.916;8.284;2024-03-02T06:57:48;24.48;;;13.63;;
32096;SDS011;18610;49.916;8.284;2024-03-02T07:00:15;25.40;;;14.25;;
32096;SDS011;18610;49.916;8.284;2024-03-02T07:02:42;26.42;;;13.27;;
32096;SDS011;18610;49.916;8.284;2024-03-02T07:05:09;31.88;;;14.48;;
32096;SDS011;18610;49.916;8.284;2024-03-02T07:07:36;24.40;;;14.48;;
32096;SDS011;18610;49.916;8.284;2024-03-02T07:10:03;32.30;;;15.13;;
32096;SDS011;18610;49.916;8.284;2024-03-02T07:12:33;24.73;;;14.55;;
32096;SDS011;18610;49.916;8.284;2024-03-02T07:15:01;28.92;;;14.35;;
32096;SDS011;18610;49.916;8.284;2024-03-02T07:17:49;31.52;;;15.32;;
32096;SDS011;18610;49.916;8.284;2024-03-02T07:20:16;37.72;;;16.17;;
32096;SDS011;18610;49.916;8.284;2024-03-02T07:22:43;30.85;;;16.75;;
32096;SDS011;18610;49.916;8.284;2024-03-02T07:25:09;28.55;;;16.27;;
32096;SDS011;18610;49.916;8.284;2024-03-02T07:27:36;33.55;;;16.55;;
32096;SDS011;18610;49.916;8.284;2024-03-02T07:30:05;26.55;;;15.73;;
32096;SDS011;18610;49.916;8.284;2024-03-02T07:32:32;27.50;;;16.58;;
32096;SDS011;18610;49.916;8.284;2024-03-02T07:34:59;28.05;;;15.55;;
32096;SDS011;18610;49.916;8.284;2024-03-02T07:37:26;24.90;;;15.55;;
32096;SDS011;18610;49.916;8.284;2024-03-02T07:39:53;72.53;;;35.95;;
32096;SDS011;18610;49.916;8.284;2024-03-02T07:42:20;29.20;;;17.80;;
32096;SDS011;18610;49.916;8.284;2024-03-02T07:44:47;32.53;;;17.17;;
32096;SDS011;18610;49.916;8.284;2024-03-02T07:47:15;28.98;;;16.38;;
32096;SDS011;18610;49.916;8.284;2024-03-02T07:49:41;28.25;;;16.90;;
32096;SDS011;18610;49.916;8.284;2024-03-02T07:52:10;30.67;;;15.77;;
32096;SDS011;18610;49.916;8.284;2024-03-02T07:54:36;29.60;;;16.73;;
32096;SDS011;18610;49.916;8.284;2024-03-02T07:57:03;27.73;;;16.95;;
32096;SDS011;18610;49.916;8.284;2024-03-02T07:59:30;29.80;;;17.33;;
32096;SDS011;18610;49.916;8.284;2024-03-02T08:01:57;29.33;;;16.92;;
32096;SDS011;18610;49.916;8.284;2024-03-02T08:04:25;32.97;;;17.50;;
32096;SDS011;18610;49.916;8.284;2024-03-02T08:06:51;30.63;;;17.25;;
32096;SDS011;18610;49.916;8.284;2024-03-02T08:09:19;31.75;;;17.90;;
32096;SDS011;18610;49.916;8.284;2024-03-02T08:11:46;30.13;;;17.90;;
32096;SDS011;18610;49.916;8.284;2024-03-02T08:14:13;35.17;;;17.20;;
32096;SDS011;18610;49.916;8.284;2024-03-02T08:16:39;29.95;;;16.70;;
32096;SDS011;18610;49.916;8.284;2024-03-02T08:19:07;31.60;;;17.67;;
32096;SDS011;18610;49.916;8.284;2024-03-02T08:21:36;27.38;;;15.27;;
32096;SDS011;18610;49.916;8.284;2024-03-02T08:24:03;29.73;;;15.60;;
32096;SDS011;18610;49.916;8.284;2024-03-02T08:26:30;25.45;;;16.80;;
32096;SDS011;18610;49.916;8.284;2024-03-02T08:28:57;27.23;;;15.68;;
32096;SDS011;18610;49.916;8.284;2024-03-02T08:31:26;27.88;;;16.27;;
32096;SDS011;18610;49.916;8.284;2024-03-02T08:33:53;28.67;;;17.08;;
32096;SDS011;18610;49.916;8.284;2024-03-02T08:36:19;28.33;;;15.68;;
32096;SDS011;18610;49.916;8.284;2024-03-02T08:38:49;33.65;;;16.95;;
32096;SDS011;18610;49.916;8.284;2024-03-02T08:41:16;29.40;;;16.67;;
32096;SDS011;18610;49.916;8.284;2024-03-02T08:43:45;28.35;;;15.90;;
32096;SDS011;18610;49.916;8.284;2024-03-02T08:46:12;25.88;;;15.93;;
32096;SDS011;18610;49.916;8.284;2024-03-02T08:48:39;24.33;;;15.52;;
32096;SDS011;18610;49.916;8.284;2024-03-02T08:51:07;29.92;;;16.33;;
32096;SDS011;18610;49.916;8.284;2024-03-02T08:53:35;27.20;;;16.40;;
32096;SDS011;18610;49.916;8.284;2024-03-02T08:56:04;30.48;;;17.25;;
32096;SDS011;18610;49.916;8.284;2024-03-02T08:58:31;28.95;;;16.75;;
32096;SDS011;18610;49.916;8.284;2024-03-02T09:00:58;33.28;;;17.83;;
32096;SDS011;18610;49.916;8.284;2024-03-02T09:03:25;29.02;;;17.33;;
32096;SDS011;18610;49.916;8.284;2024-03-02T09:05:51;33.85;;;17.17;;
32096;SDS011;18610;49.916;8.284;2024-03-02T09:08:18;36.15;;;17.15;;
32096;SDS011;18610;49.916;8.284;2024-03-02T09:10:45;294.02;;;40.22;;
32096;SDS011;18610;49.916;8.284;2024-03-02T09:13:13;96.88;;;19.08;;
32096;SDS011;18610;49.916;8.284;2024-03-02T09:15:39;84.40;;;19.48;;
32096;SDS011;18610;49.916;8.284;2024-03-02T09:18:06;24.88;;;15.90;;
32096;SDS011;18610;49.916;8.284;2024-03-02T09:20:33;26.48;;;14.77;;
32096;SDS011;18610;49.916;8.284;2024-03-02T09:22:59;32.05;;;16.50;;
32096;SDS011;18610;49.916;8.284;2024-03-02T09:25:29;28.17;;;15.63;;
32096;SDS011;18610;49.916;8.284;2024-03-02T09:27:55;23.38;;;14.68;;
32096;SDS011;18610;49.916;8.284;2024-03-02T09:30:23;23.10;;;14.40;;
32096;SDS011;18610;49.916;8.284;2024-03-02T09:32:50;23.77;;;15.27;;
32096;SDS011;18610;49.916;8.284;2024-03-02T09:35:17;27.48;;;16.02;;
32096;SDS011;18610;49.916;8.284;2024-03-02T09:37:43;22.70;;;14.93;;
32096;SDS011;18610;49.916;8.284;2024-03-02T09:40:10;25.92;;;16.42;;
32096;SDS011;18610;49.916;8.284;2024-03-02T09:42:37;25.65;;;14.75;;
32096;SDS011;18610;49.916;8.284;2024-03-02T09:45:05;26.35;;;15.13;;
32096;SDS011;18610;49.916;8.284;2024-03-02T09:47:33;25.55;;;14.25;;
32096;SDS011;18610;49.916;8.284;2024-03-02T09:50:00;28.50;;;14.43;;
32096;SDS011;18610;49.916;8.284;2024-03-02T09:52:28;29.63;;;14.48;;
32096;SDS011;18610;49.916;8.284;2024-03-02T09:54:56;23.17;;;13.55;;
32096;SDS011;18610;49.916;8.284;2024-03-02T09:57:23;25.23;;;14.77;;
32096;SDS011;18610;49.916;8.284;2024-03-02T09:59:50;25.02;;;14.68;;
32096;SDS011;18610;49.916;8.284;2024-03-02T10:02:16;26.90;;;14.07;;
32096;SDS011;18610;49.916;8.284;2024-03-02T10:04:45;22.75;;;14.35;;
32096;SDS011;18610;49.916;8.284;2024-03-02T10:07:12;29.85;;;14.20;;
32096;SDS011;18610;49.916;8.284;2024-03-02T10:09:40;26.58;;;14.35;;
32096;SDS011;18610;49.916;8.284;2024-03-02T10:12:07;22.65;;;13.80;;
32096;SDS011;18610;49.916;8.284;2024-03-02T10:14:37;20.05;;;12.93;;
32096;SDS011;18610;49.916;8.284;2024-03-02T10:17:05;21.08;;;14.07;;
32096;SDS011;18610;49.916;8.284;2024-03-02T10:19:34;22.55;;;13.55;;
32096;SDS011;18610;49.916;8.284;2024-03-02T10:22:03;21.95;;;13.38;;
32096;SDS011;18610;49.916;8.284;2024-03-02T10:24:35;23.25;;;13.98;;
32096;SDS011;18610;49.916;8.284;2024-03-02T10:27:06;20.75;;;13.40;;
32096;SDS011;18610;49.916;8.284;2024-03-02T10:29:36;21.73;;;12.38;;
32096;SDS011;18610;49.916;8.284;2024-03-02T10:32:04;23.52;;;13.15;;
32096;SDS011;18610;49.916;8.284;2024-03-02T10:34:31;18.98;;;12.77;;
32096;SDS011;18610;49.916;8.284;2024-03-02T10:36:59;22.92;;;13.18;;
32096;SDS011;18610;49.916;8.284;2024-03-02T10:39:27;20.48;;;12.88;;
32096;SDS011;18610;49.916;8.284;2024-03-02T10:41:54;24.30;;;12.32;;
32096;SDS011;18610;49.916;8.284;2024-03-02T10:44:22;23.05;;;13.38;;
32096;SDS011;18610;49.916;8.284;2024-03-02T10:46:49;24.17;;;11.80;;
32096;SDS011;18610;49.916;8.284;2024-03-02T10:49:18;21.83;;;13.25;;
32096;SDS011;18610;49.916;8.284;2024-03-02T10:51:46;23.42;;;14.32;;
32096;SDS011;18610;49.916;8.284;2024-03-02T10:54:13;24.27;;;14.95;;
32096;SDS011;18610;49.916;8.284;2024-03-02T10:56:43;22.45;;;14.40;;
32096;SDS011;18610;49.916;8.284;2024-03-02T10:59:13;27.88;;;13.45;;
32096;SDS011;18610;49.916;8.284;2024-03-02T11:01:45;27.60;;;12.98;;
32096;SDS011;18610;49.916;8.284;2024-03-02T11:04:14;21.38;;;13.35;;
32096;SDS011;18610;49.916;8.284;2024-03-02T11:06:42;24.60;;;13.40;;
32096;SDS011;18610;49.916;8.284;2024-03-02T11:09:14;21.17;;;12.43;;
32096;SDS011;18610;49.916;8.284;2024-03-02T11:11:42;27.38;;;12.90;;
32096;SDS011;18610;49.916;8.284;2024-03-02T11:14:10;20.60;;;12.50;;
32096;SDS011;18610;49.916;8.284;2024-03-02T11:16:40;23.15;;;12.32;;
32096;SDS011;18610;49.916;8.284;2024-03-02T11:19:07;20.05;;;12.50;;
32096;SDS011;18610;49.916;8.284;2024-03-02T11:21:37;19.35;;;12.15;;
32096;SDS011;18610;49.916;8.284;2024-03-02T11:27:00;22.30;;;13.00;;
32096;SDS011;18610;49.916;8.284;2024-03-02T11:29:43;18.38;;;10.65;;
32096;SDS011;18610;49.916;8.284;2024-03-02T11:32:17;17.58;;;10.57;;
32096;SDS011;18610;49.916;8.284;2024-03-02T11:34:46;18.50;;;10.23;;
32096;SDS011;18610;49.916;8.284;2024-03-02T11:37:14;17.70;;;11.15;;
32096;SDS011;18610;49.916;8.284;2024-03-02T11:39:42;18.90;;;11.63;;
32096;SDS011;18610;49.916;8.284;2024-03-02T11:42:12;20.70;;;12.05;;
32096;SDS011;18610;49.916;8.284;2024-03-02T11:44:41;17.05;;;9.52;;
32096;SDS011;18610;49.916;8.284;2024-03-02T11:47:10;20.33;;;10.07;;
32096;SDS011;18610;49.916;8.284;2024-03-02T11:49:40;21.63;;;10.93;;
32096;SDS011;18610;49.916;8.284;2024-03-02T11:52:09;12.77;;;8.88;;
32096;SDS011;18610;49.916;8.284;2024-03-02T11:54:37;15.40;;;9.50;;
32096;SDS011;18610;49.916;8.284;2024-03-02T11:57:06;12.32;;;8.82;;
32096;SDS011;18610;49.916;8.284;2024-03-02T11:59:35;19.17;;;10.55;;
32096;SDS011;18610;49.916;8.284;2024-03-02T12:02:01;13.18;;;8.90;;
32096;SDS011;18610;49.916;8.284;2024-03-02T12:04:29;13.85;;;8.25;;
32096;SDS011;18610;49.916;8.284;2024-03-02T12:06:56;14.63;;;9.07;;
32096;SDS011;18610;49.916;8.284;2024-03-02T12:09:25;18.05;;;9.75;;
32096;SDS011;18610;49.916;8.284;2024-03-02T12:12:02;14.82;;;9.55;;
32096;SDS011;18610;49.916;8.284;2024-03-02T12:14:30;13.80;;;8.05;;
32096;SDS011;18610;49.916;8.284;2024-03-02T12:16:58;18.45;;;9.25;;
32096;SDS011;18610;49.916;8.284;2024-03-02T12:19:25;14.85;;;9.48;;
32096;SDS011;18610;49.916;8.284;2024-03-02T12:21:52;14.13;;;7.57;;
32096;SDS011;18610;49.916;8.284;2024-03-02T12:24:19;15.90;;;8.65;;
32096;SDS011;18610;49.916;8.284;2024-03-02T12:26:47;12.85;;;7.38;;
32096;SDS011;18610;49.916;8.284;2024-03-02T12:29:14;11.27;;;6.90;;
32096;SDS011;18610;49.916;8.284;2024-03-02T12:31:41;8.00;;;5.78;;
32096;SDS011;18610;49.916;8.284;2024-03-02T12:34:09;8.90;;;5.47;;
32096;SDS011;18610;49.916;8.284;2024-03-02T12:36:38;12.68;;;5.38;;
32096;SDS011;18610;49.916;8.284;2024-03-02T12:39:06;8.45;;;5.63;;
32096;SDS011;18610;49.916;8.284;2024-03-02T12:41:33;6.30;;;4.55;;
32096;SDS011;18610;49.916;8.284;2024-03-02T12:44:02;7.80;;;5.10;;
32096;SDS011;18610;49.916;8.284;2024-03-02T12:46:29;7.82;;;5.45;;
32096;SDS011;18610;49.916;8.284;2024-03-02T12:48:56;7.10;;;5.05;;
32096;SDS011;18610;49.916;8.284;2024-03-02T12:51:24;4.88;;;3.58;;
32096;SDS011;18610;49.916;8.284;2024-03-02T12:53:53;5.68;;;3.50;;
32096;SDS011;18610;49.916;8.284;2024-03-02T12:56:20;5.57;;;4.20;;
32096;SDS011;18610;49.916;8.284;2024-03-02T12:58:47;7.50;;;4.75;;
32096;SDS011;18610;49.916;8.284;2024-03-02T13:01:14;5.88;;;4.15;;
32096;SDS011;18610;49.916;8.284;2024-03-02T13:03:44;9.02;;;4.80;;
32096;SDS011;18610;49.916;8.284;2024-03-02T13:06:10;6.53;;;4.13;;
32096;SDS011;18610;49.916;8.284;2024-03-02T13:08:38;6.88;;;4.63;;
32096;SDS011;18610;49.916;8.284;2024-03-02T13:11:05;9.43;;;4.47;;
32096;SDS011;18610;49.916;8.284;2024-03-02T13:13:32;9.43;;;5.15;;
32096;SDS011;18610;49.916;8.284;2024-03-02T13:15:59;6.28;;;4.90;;
32096;SDS011;18610;49.916;8.284;2024-03-02T13:18:28;8.32;;;5.03;;
32096;SDS011;18610;49.916;8.284;2024-03-02T13:20:56;6.43;;;4.40;;
32096;SDS011;18610;49.916;8.284;2024-03-02T13:23:22;6.97;;;4.10;;
32096;SDS011;18610;49.916;8.284;2024-03-02T13:25:50;7.70;;;4.18;;
32096;SDS011;18610;49.916;8.284;2024-03-02T13:28:17;10.25;;;4.82;;
32096;SDS011;18610;49.916;8.284;2024-03-02T13:30:44;10.65;;;5.05;;
32096;SDS011;18610;49.916;8.284;2024-03-02T13:33:11;10.23;;;4.18;;
32096;SDS011;18610;49.916;8.284;2024-03-02T13:35:37;7.43;;;4.63;;
32096;SDS011;18610;49.916;8.284;2024-03-02T13:38:04;7.05;;;4.00;;
32096;SDS011;18610;49.916;8.284;2024-03-02T13:40:30;8.30;;;4.80;;
32096;SDS011;18610;49.916;8.284;2024-03-02T13:43:01;6.60;;;4.18;;
32096;SDS011;18610;49.916;8.284;2024-03-02T13:45:28;9.55;;;4.18;;
32096;SDS011;18610;49.916;8.284;2024-03-02T13:47:55;8.07;;;3.90;;
32096;SDS011;18610;49.916;8.284;2024-03-02T13:50:22;7.57;;;3.50;;
32096;SDS011;18610;49.916;8.284;2024-03-02T13:52:48;5.72;;;3.72;;
32096;SDS011;18610;49.916;8.284;2024-03-02T13:55:15;5.10;;;3.95;;
32096;SDS011;18610;49.916;8.284;2024-03-02T13:57:42;4.80;;;3.45;;
32096;SDS011;18610;49.916;8.284;2024-03-02T14:00:10;5.65;;;3.50;;
32096;SDS011;18610;49.916;8.284;2024-03-02T14:02:38;27.52;;;18.48;;
32096;SDS011;18610;49.916;8.284;2024-03-02T14:05:05;53.20;;;31.92;;
32096;SDS011;18610;49.916;8.284;2024-03-02T14:07:33;7.18;;;5.35;;
32096;SDS011;18610;49.916;8.284;2024-03-02T14:10:00;61.28;;;41.65;;
32096;SDS011;18610;49.916;8.284;2024-03-02T14:12:27;34.00;;;22.15;;
32096;SDS011;18610;49.916;8.284;2024-03-02T14:14:53;62.10;;;40.35;;
32096;SDS011;18610;49.916;8.284;2024-03-02T14:17:24;87.65;;;54.00;;
32096;SDS011;18610;49.916;8.284;2024-03-02T14:19:51;5.88;;;4.28;;
32096;SDS011;18610;49.916;8.284;2024-03-02T14:22:18;4.20;;;3.13;;
32096;SDS011;18610;49.916;8.284;2024-03-02T14:24:45;11.50;;;7.65;;
32096;SDS011;18610;49.916;8.284;2024-03-02T14:27:12;5.22;;;3.08;;
32096;SDS011;18610;49.916;8.284;2024-03-02T14:29:39;4.13;;;2.75;;
32096;SDS011;18610;49.916;8.284;2024-03-02T14:32:06;3.55;;;2.78;;